sensor_id;sensor_type;location;lat;lon;timestamp;temperature;humidity
59309;DHT22;48433;53.016;-2.260;2023-05-10T00:03:58;8.10;99.90
59309;DHT22;48433;53.016;-2.260;2023-05-10T00:06:26;8.00;99.90
59309;DHT22;48433;53.016;-2.260;2023-05-10T00:08:54;8.00;99.90
59309;DHT22;48433;53.016;-2.260;2023-05-10T00:11:21;8.00;99.90
59309;DHT22;48433;53.016;-2.260;2023-05-10T00:13:49;8.00;99.90
59309;DHT22;48433;53.016;-2.260;2023-05-10T00:16:17;8.00;99.90
59309;DHT22;48433;53.016;-2.260;2023-05-10T00:18:44;8.00;99.90
59309;DHT22;48433;53.016;-2.260;2023-05-10T00:21:12;9.40;99.90
59309;DHT22;48433;53.016;-2.260;2023-05-10T00:23:39;7.90;99.90
59309;DHT22;48433;53.016;-2.260;2023-05-10T00:26:07;7.80;99.90
59309;DHT22;48433;53.016;-2.260;2023-05-10T00:28:37;7.80;99.90
59309;DHT22;48433;53.016;-2.260;2023-05-10T00:31:05;7.80;99.90
59309;DHT22;48433;53.016;-2.260;2023-05-10T00:33:32;7.80;99.90
59309;DHT22;48433;53.016;-2.260;2023-05-10T00:36:00;7.70;99.90
59309;DHT22;48433;53.016;-2.260;2023-05-10T00:38:27;7.70;99.90
59309;DHT22;48433;53.016;-2.260;2023-05-10T00:40:56;7.70;99.90
59309;DHT22;48433;53.016;-2.260;2023-05-10T00:43:29;7.70;99.90
59309;DHT22;48433;53.016;-2.260;2023-05-10T00:45:57;7.70;99.90
59309;DHT22;48433;53.016;-2.260;2023-05-10T00:48:25;7.70;99.90
59309;DHT22;48433;53.016;-2.260;2023-05-10T00:50:52;7.50;99.90
59309;DHT22;48433;53.016;-2.260;2023-05-10T00:53:20;7.40;99.90
59309;DHT22;48433;53.016;-2.260;2023-05-10T00:55:48;7.50;99.90
59309;DHT22;48433;53.016;-2.260;2023-05-10T00:58:16;7.50;99.90
59309;DHT22;48433;53.016;-2.260;2023-05-10T01:00:46;7.50;99.90
59309;DHT22;48433;53.016;-2.260;2023-05-10T01:03:15;7.50;99.90
59309;DHT22;48433;53.016;-2.260;2023-05-10T01:05:43;7.50;99.90
59309;DHT22;48433;53.016;-2.260;2023-05-10T01:08:11;7.50;99.90
59309;DHT22;48433;53.016;-2.260;2023-05-10T01:10:38;7.50;99.90
59309;DHT22;48433;53.016;-2.260;2023-05-10T01:13:06;7.50;99.90
59309;DHT22;48433;53.016;-2.260;2023-05-10T01:15:34;7.50;99.90
59309;DHT22;48433;53.016;-2.260;2023-05-10T01:18:02;7.40;99.90
59309;DHT22;48433;53.016;-2.260;2023-05-10T01:20:38;7.40;99.90
59309;DHT22;48433;53.016;-2.260;2023-05-10T01:23:30;7.30;99.90
59309;DHT22;48433;53.016;-2.260;2023-05-10T01:35:07;7.30;99.90
59309;DHT22;48433;53.016;-2.260;2023-05-10T01:37:41;7.20;99.90
59309;DHT22;48433;53.016;-2.260;2023-05-10T01:42:53;7.10;99.90
59309;DHT22;48433;53.016;-2.260;2023-05-10T01:45:39;7.10;99.90
59309;DHT22;48433;53.016;-2.260;2023-05-10T01:48:10;7.10;99.90
59309;DHT22;48433;53.016;-2.260;2023-05-10T01:50:41;7.10;99.90
59309;DHT22;48433;53.016;-2.260;2023-05-10T01:53:11;7.10;99.90
59309;DHT22;48433;53.016;-2.260;2023-05-10T01:55:49;7.10;99.90
59309;DHT22;48433;53.016;-2.260;2023-05-10T01:58:38;7.00;99.90
59309;DHT22;48433;53.016;-2.260;2023-05-10T02:01:08;7.00;99.90
59309;DHT22;48433;53.016;-2.260;2023-05-10T02:03:38;7.10;99.90
59309;DHT22;48433;53.016;-2.260;2023-05-10T02:06:09;7.10;99.90
59309;DHT22;48433;53.016;-2.260;2023-05-10T02:08:38;7.10;99.90
59309;DHT22;48433;53.016;-2.260;2023-05-10T02:11:08;7.00;99.90
59309;DHT22;48433;53.016;-2.260;2023-05-10T02:13:39;7.00;99.90
59309;DHT22;48433;53.016;-2.260;2023-05-10T02:16:07;6.90;99.90
59309;DHT22;48433;53.016;-2.260;2023-05-10T02:18:36;6.90;99.90
59309;DHT22;48433;53.016;-2.260;2023-05-10T02:21:04;6.80;99.90
59309;DHT22;48433;53.016;-2.260;2023-05-10T02:23:35;6.70;99.90
59309;DHT22;48433;53.016;-2.260;2023-05-10T02:26:05;6.70;99.90
59309;DHT22;48433;53.016;-2.260;2023-05-10T02:28:35;6.60;99.90
59309;DHT22;48433;53.016;-2.260;2023-05-10T02:31:07;6.60;99.90
59309;DHT22;48433;53.016;-2.260;2023-05-10T02:33:42;6.70;99.90
59309;DHT22;48433;53.016;-2.260;2023-05-10T02:36:11;6.70;99.90
59309;DHT22;48433;53.016;-2.260;2023-05-10T02:38:40;6.70;99.90
59309;DHT22;48433;53.016;-2.260;2023-05-10T02:41:08;6.70;99.90
59309;DHT22;48433;53.016;-2.260;2023-05-10T02:43:38;6.70;99.90
59309;DHT22;48433;53.016;-2.260;2023-05-10T02:46:07;6.70;99.90
59309;DHT22;48433;53.016;-2.260;2023-05-10T02:51:06;6.60;99.90
59309;DHT22;48433;53.016;-2.260;2023-05-10T02:53:36;6.60;99.90
59309;DHT22;48433;53.016;-2.260;2023-05-10T02:56:11;6.60;99.90
59309;DHT22;48433;53.016;-2.260;2023-05-10T02:58:40;6.60;99.90
59309;DHT22;48433;53.016;-2.260;2023-05-10T03:01:08;6.60;99.90
59309;DHT22;48433;53.016;-2.260;2023-05-10T03:03:36;6.60;99.90
59309;DHT22;48433;53.016;-2.260;2023-05-10T03:06:04;6.70;99.90
59309;DHT22;48433;53.016;-2.260;2023-05-10T03:08:31;6.80;99.90
59309;DHT22;48433;53.016;-2.260;2023-05-10T03:20:22;7.10;99.90
59309;DHT22;48433;53.016;-2.260;2023-05-10T03:22:55;7.10;99.90
59309;DHT22;48433;53.016;-2.260;2023-05-10T03:25:27;7.20;99.90
59309;DHT22;48433;53.016;-2.260;2023-05-10T03:27:58;7.30;99.90
59309;DHT22;48433;53.016;-2.260;2023-05-10T03:30:27;7.40;99.90
59309;DHT22;48433;53.016;-2.260;2023-05-10T03:32:55;7.40;99.90
59309;DHT22;48433;53.016;-2.260;2023-05-10T03:35:24;7.50;99.90
59309;DHT22;48433;53.016;-2.260;2023-05-10T03:37:52;7.50;99.90
59309;DHT22;48433;53.016;-2.260;2023-05-10T03:40:20;7.70;99.90
59309;DHT22;48433;53.016;-2.260;2023-05-10T03:45:16;7.80;99.90
59309;DHT22;48433;53.016;-2.260;2023-05-10T03:47:43;7.90;99.90
59309;DHT22;48433;53.016;-2.260;2023-05-10T03:50:11;7.90;99.90
59309;DHT22;48433;53.016;-2.260;2023-05-10T03:52:39;8.00;99.90
59309;DHT22;48433;53.016;-2.260;2023-05-10T03:55:07;8.00;99.90
59309;DHT22;48433;53.016;-2.260;2023-05-10T03:57:38;8.20;99.90
59309;DHT22;48433;53.016;-2.260;2023-05-10T04:00:07;8.10;99.90
59309;DHT22;48433;53.016;-2.260;2023-05-10T04:02:41;8.30;99.90
59309;DHT22;48433;53.016;-2.260;2023-05-10T04:05:14;8.30;99.90
59309;DHT22;48433;53.016;-2.260;2023-05-10T04:07:42;8.30;99.90
59309;DHT22;48433;53.016;-2.260;2023-05-10T04:10:11;8.40;99.90
59309;DHT22;48433;53.016;-2.260;2023-05-10T04:12:39;8.40;99.90
59309;DHT22;48433;53.016;-2.260;2023-05-10T04:15:07;8.50;99.90
59309;DHT22;48433;53.016;-2.260;2023-05-10T04:17:35;8.60;99.90
59309;DHT22;48433;53.016;-2.260;2023-05-10T04:20:03;8.60;99.90
59309;DHT22;48433;53.016;-2.260;2023-05-10T04:22:32;8.60;99.90
59309;DHT22;48433;53.016;-2.260;2023-05-10T04:24:59;8.60;99.90
59309;DHT22;48433;53.016;-2.260;2023-05-10T04:27:27;8.70;99.90
59309;DHT22;48433;53.016;-2.260;2023-05-10T04:29:54;8.70;99.90
59309;DHT22;48433;53.016;-2.260;2023-05-10T04:32:22;8.70;99.90
59309;DHT22;48433;53.016;-2.260;2023-05-10T04:34:50;8.70;99.90
59309;DHT22;48433;53.016;-2.260;2023-05-10T04:37:18;8.70;99.90
59309;DHT22;48433;53.016;-2.260;2023-05-10T04:39:47;8.70;99.90
59309;DHT22;48433;53.016;-2.260;2023-05-10T04:42:14;8.70;99.90
59309;DHT22;48433;53.016;-2.260;2023-05-10T04:44:42;8.70;99.90
59309;DHT22;48433;53.016;-2.260;2023-05-10T04:47:10;8.60;99.90
59309;DHT22;48433;53.016;-2.260;2023-05-10T04:49:40;8.60;99.90
59309;DHT22;48433;53.016;-2.260;2023-05-10T04:52:08;8.70;99.90
59309;DHT22;48433;53.016;-2.260;2023-05-10T04:54:35;8.70;99.90
59309;DHT22;48433;53.016;-2.260;2023-05-10T04:57:03;8.70;99.90
59309;DHT22;48433;53.016;-2.260;2023-05-10T04:59:30;8.60;99.90
59309;DHT22;48433;53.016;-2.260;2023-05-10T05:01:58;8.60;99.90
59309;DHT22;48433;53.016;-2.260;2023-05-10T05:04:26;8.60;99.90
59309;DHT22;48433;53.016;-2.260;2023-05-10T05:06:53;8.40;99.90
59309;DHT22;48433;53.016;-2.260;2023-05-10T05:09:21;8.40;99.90
59309;DHT22;48433;53.016;-2.260;2023-05-10T05:11:48;8.40;99.90
59309;DHT22;48433;53.016;-2.260;2023-05-10T05:14:16;8.30;99.90
59309;DHT22;48433;53.016;-2.260;2023-05-10T05:16:44;8.30;99.90
59309;DHT22;48433;53.016;-2.260;2023-05-10T05:19:11;8.30;99.90
59309;DHT22;48433;53.016;-2.260;2023-05-10T05:21:39;8.30;99.90
59309;DHT22;48433;53.016;-2.260;2023-05-10T05:24:08;8.30;99.90
59309;DHT22;48433;53.016;-2.260;2023-05-10T05:26:36;8.30;99.90
59309;DHT22;48433;53.016;-2.260;2023-05-10T05:29:04;8.30;99.90
59309;DHT22;48433;53.016;-2.260;2023-05-10T05:31:32;8.30;99.90
59309;DHT22;48433;53.016;-2.260;2023-05-10T05:33:59;8.30;99.90
59309;DHT22;48433;53.016;-2.260;2023-05-10T05:36:27;8.40;99.90
59309;DHT22;48433;53.016;-2.260;2023-05-10T05:38:54;8.50;99.90
59309;DHT22;48433;53.016;-2.260;2023-05-10T05:41:22;8.50;99.90
59309;DHT22;48433;53.016;-2.260;2023-05-10T05:43:51;8.70;99.90
59309;DHT22;48433;53.016;-2.260;2023-05-10T05:46:19;8.80;99.90
59309;DHT22;48433;53.016;-2.260;2023-05-10T05:48:47;8.90;99.90
59309;DHT22;48433;53.016;-2.260;2023-05-10T05:51:14;9.00;99.90
59309;DHT22;48433;53.016;-2.260;2023-05-10T05:53:42;9.10;99.90
59309;DHT22;48433;53.016;-2.260;2023-05-10T05:56:10;9.10;99.90
59309;DHT22;48433;53.016;-2.260;2023-05-10T05:58:37;9.30;99.90
59309;DHT22;48433;53.016;-2.260;2023-05-10T06:01:05;9.50;99.90
59309;DHT22;48433;53.016;-2.260;2023-05-10T06:03:32;9.60;99.90
59309;DHT22;48433;53.016;-2.260;2023-05-10T06:06:00;9.70;99.90
59309;DHT22;48433;53.016;-2.260;2023-05-10T06:08:28;9.70;99.90
59309;DHT22;48433;53.016;-2.260;2023-05-10T06:13:23;10.00;99.90
59309;DHT22;48433;53.016;-2.260;2023-05-10T06:15:51;10.10;99.90
59309;DHT22;48433;53.016;-2.260;2023-05-10T06:18:18;10.10;99.90
59309;DHT22;48433;53.016;-2.260;2023-05-10T06:20:46;10.10;99.90
59309;DHT22;48433;53.016;-2.260;2023-05-10T06:23:14;10.40;99.90
59309;DHT22;48433;53.016;-2.260;2023-05-10T06:25:41;10.40;99.90
59309;DHT22;48433;53.016;-2.260;2023-05-10T06:28:09;10.60;99.90
59309;DHT22;48433;53.016;-2.260;2023-05-10T06:30:37;10.80;99.90
59309;DHT22;48433;53.016;-2.260;2023-05-10T06:33:04;11.30;99.90
59309;DHT22;48433;53.016;-2.260;2023-05-10T06:35:33;11.30;99.90
59309;DHT22;48433;53.016;-2.260;2023-05-10T06:38:00;11.60;99.90
59309;DHT22;48433;53.016;-2.260;2023-05-10T06:40:28;12.00;99.90
59309;DHT22;48433;53.016;-2.260;2023-05-10T06:42:56;12.10;99.90
59309;DHT22;48433;53.016;-2.260;2023-05-10T06:45:23;12.10;99.90
59309;DHT22;48433;53.016;-2.260;2023-05-10T06:47:51;12.20;99.90
59309;DHT22;48433;53.016;-2.260;2023-05-10T06:50:19;12.30;99.90
59309;DHT22;48433;53.016;-2.260;2023-05-10T06:52:47;12.40;99.90
59309;DHT22;48433;53.016;-2.260;2023-05-10T06:55:14;12.50;99.90
59309;DHT22;48433;53.016;-2.260;2023-05-10T06:57:43;12.70;99.90
59309;DHT22;48433;53.016;-2.260;2023-05-10T07:00:10;12.90;99.90
59309;DHT22;48433;53.016;-2.260;2023-05-10T07:02:38;13.00;99.90
59309;DHT22;48433;53.016;-2.260;2023-05-10T07:05:06;13.10;99.90
59309;DHT22;48433;53.016;-2.260;2023-05-10T07:07:34;13.10;99.90
59309;DHT22;48433;53.016;-2.260;2023-05-10T07:10:02;13.20;99.90
59309;DHT22;48433;53.016;-2.260;2023-05-10T07:12:30;13.30;99.90
59309;DHT22;48433;53.016;-2.260;2023-05-10T07:14:57;13.40;99.90
59309;DHT22;48433;53.016;-2.260;2023-05-10T07:17:25;13.60;99.90
59309;DHT22;48433;53.016;-2.260;2023-05-10T07:19:53;13.80;99.90
59309;DHT22;48433;53.016;-2.260;2023-05-10T07:22:20;13.90;99.90
59309;DHT22;48433;53.016;-2.260;2023-05-10T07:24:48;14.10;99.90
59309;DHT22;48433;53.016;-2.260;2023-05-10T07:27:16;14.20;99.90
59309;DHT22;48433;53.016;-2.260;2023-05-10T07:29:43;14.20;99.90
59309;DHT22;48433;53.016;-2.260;2023-05-10T07:32:11;14.30;99.90
59309;DHT22;48433;53.016;-2.260;2023-05-10T07:34:39;14.30;99.90
59309;DHT22;48433;53.016;-2.260;2023-05-10T07:37:06;14.40;99.90
59309;DHT22;48433;53.016;-2.260;2023-05-10T07:39:34;14.30;99.90
59309;DHT22;48433;53.016;-2.260;2023-05-10T07:42:02;14.30;99.90
59309;DHT22;48433;53.016;-2.260;2023-05-10T07:44:30;14.30;99.90
59309;DHT22;48433;53.016;-2.260;2023-05-10T07:46:57;14.30;99.90
59309;DHT22;48433;53.016;-2.260;2023-05-10T07:49:25;14.20;99.90
59309;DHT22;48433;53.016;-2.260;2023-05-10T07:51:53;14.50;99.90
59309;DHT22;48433;53.016;-2.260;2023-05-10T07:54:21;14.70;99.90
59309;DHT22;48433;53.016;-2.260;2023-05-10T07:56:49;14.80;99.90
59309;DHT22;48433;53.016;-2.260;2023-05-10T07:59:17;14.90;99.90
59309;DHT22;48433;53.016;-2.260;2023-05-10T08:01:45;15.00;99.90
59309;DHT22;48433;53.016;-2.260;2023-05-10T08:04:13;15.10;99.90
59309;DHT22;48433;53.016;-2.260;2023-05-10T08:06:40;15.00;99.90
59309;DHT22;48433;53.016;-2.260;2023-05-10T08:09:08;14.90;99.90
59309;DHT22;48433;53.016;-2.260;2023-05-10T08:11:36;14.80;99.90
59309;DHT22;48433;53.016;-2.260;2023-05-10T08:14:04;14.50;99.90
59309;DHT22;48433;53.016;-2.260;2023-05-10T08:16:31;14.40;99.90
59309;DHT22;48433;53.016;-2.260;2023-05-10T08:18:59;14.20;99.90
59309;DHT22;48433;53.016;-2.260;2023-05-10T08:21:27;14.10;99.90
59309;DHT22;48433;53.016;-2.260;2023-05-10T08:23:55;14.10;99.90
59309;DHT22;48433;53.016;-2.260;2023-05-10T08:26:22;14.10;99.90
59309;DHT22;48433;53.016;-2.260;2023-05-10T08:28:50;14.10;99.90
59309;DHT22;48433;53.016;-2.260;2023-05-10T08:31:18;14.10;99.90
59309;DHT22;48433;53.016;-2.260;2023-05-10T08:33:46;14.10;99.90
59309;DHT22;48433;53.016;-2.260;2023-05-10T08:36:13;14.10;99.90
59309;DHT22;48433;53.016;-2.260;2023-05-10T08:38:49;13.90;99.90
59309;DHT22;48433;53.016;-2.260;2023-05-10T08:41:21;13.90;99.90
59309;DHT22;48433;53.016;-2.260;2023-05-10T08:43:51;13.80;99.90
59309;DHT22;48433;53.016;-2.260;2023-05-10T08:46:21;13.80;99.90
59309;DHT22;48433;53.016;-2.260;2023-05-10T08:48:50;13.80;99.90
59309;DHT22;48433;53.016;-2.260;2023-05-10T08:51:24;13.80;99.90
59309;DHT22;48433;53.016;-2.260;2023-05-10T08:53:54;13.90;99.90
59309;DHT22;48433;53.016;-2.260;2023-05-10T08:56:22;14.00;99.90
59309;DHT22;48433;53.016;-2.260;2023-05-10T08:58:51;14.10;99.90
59309;DHT22;48433;53.016;-2.260;2023-05-10T09:01:19;14.20;99.90
59309;DHT22;48433;53.016;-2.260;2023-05-10T09:03:47;14.60;99.90
59309;DHT22;48433;53.016;-2.260;2023-05-10T09:06:15;14.60;99.90
59309;DHT22;48433;53.016;-2.260;2023-05-10T09:08:43;14.90;99.90
59309;DHT22;48433;53.016;-2.260;2023-05-10T09:11:12;15.10;99.90
59309;DHT22;48433;53.016;-2.260;2023-05-10T09:13:40;15.40;99.90
59309;DHT22;48433;53.016;-2.260;2023-05-10T09:16:09;15.40;99.90
59309;DHT22;48433;53.016;-2.260;2023-05-10T09:18:48;15.60;99.90
59309;DHT22;48433;53.016;-2.260;2023-05-10T09:21:17;15.80;99.90
59309;DHT22;48433;53.016;-2.260;2023-05-10T09:23:47;15.90;99.90
59309;DHT22;48433;53.016;-2.260;2023-05-10T09:26:15;15.90;99.90
59309;DHT22;48433;53.016;-2.260;2023-05-10T09:28:57;16.00;99.90
59309;DHT22;48433;53.016;-2.260;2023-05-10T09:31:49;16.10;99.90
59309;DHT22;48433;53.016;-2.260;2023-05-10T09:34:29;16.30;99.90
59309;DHT22;48433;53.016;-2.260;2023-05-10T09:37:00;16.40;99.90
59309;DHT22;48433;53.016;-2.260;2023-05-10T09:39:36;16.60;99.90
59309;DHT22;48433;53.016;-2.260;2023-05-10T09:42:08;16.90;99.90
59309;DHT22;48433;53.016;-2.260;2023-05-10T09:44:36;18.00;99.90
59309;DHT22;48433;53.016;-2.260;2023-05-10T09:47:05;18.00;99.90
59309;DHT22;48433;53.016;-2.260;2023-05-10T09:49:33;18.30;99.90
59309;DHT22;48433;53.016;-2.260;2023-05-10T09:52:07;18.50;99.90
59309;DHT22;48433;53.016;-2.260;2023-05-10T09:54:35;18.50;99.90
59309;DHT22;48433;53.016;-2.260;2023-05-10T09:57:03;18.60;99.90
59309;DHT22;48433;53.016;-2.260;2023-05-10T09:59:33;18.70;99.90
59309;DHT22;48433;53.016;-2.260;2023-05-10T10:02:02;18.80;99.90
59309;DHT22;48433;53.016;-2.260;2023-05-10T10:04:30;18.40;99.90
59309;DHT22;48433;53.016;-2.260;2023-05-10T10:07:02;18.30;99.90
59309;DHT22;48433;53.016;-2.260;2023-05-10T10:09:31;18.50;99.90
59309;DHT22;48433;53.016;-2.260;2023-05-10T10:12:03;18.50;99.90
59309;DHT22;48433;53.016;-2.260;2023-05-10T10:14:31;19.40;99.90
59309;DHT22;48433;53.016;-2.260;2023-05-10T10:17:00;19.40;99.90
59309;DHT22;48433;53.016;-2.260;2023-05-10T10:19:33;19.90;99.90
59309;DHT22;48433;53.016;-2.260;2023-05-10T10:22:01;19.90;99.90
59309;DHT22;48433;53.016;-2.260;2023-05-10T10:24:28;19.40;99.90
59309;DHT22;48433;53.016;-2.260;2023-05-10T10:27:03;19.10;99.90
59309;DHT22;48433;53.016;-2.260;2023-05-10T10:34:48;16.40;99.90
59309;DHT22;48433;53.016;-2.260;2023-05-10T10:37:15;16.40;99.90
59309;DHT22;48433;53.016;-2.260;2023-05-10T10:39:43;16.20;99.90
59309;DHT22;48433;53.016;-2.260;2023-05-10T10:42:11;16.30;99.90
59309;DHT22;48433;53.016;-2.260;2023-05-10T10:44:38;16.20;99.90
59309;DHT22;48433;53.016;-2.260;2023-05-10T10:49:49;16.30;99.90
59309;DHT22;48433;53.016;-2.260;2023-05-10T10:52:28;17.00;99.90
59309;DHT22;48433;53.016;-2.260;2023-05-10T11:02:57;19.80;99.90
59309;DHT22;48433;53.016;-2.260;2023-05-10T11:05:47;20.60;99.90
59309;DHT22;48433;53.016;-2.260;2023-05-10T11:08:28;21.40;99.90
59309;DHT22;48433;53.016;-2.260;2023-05-10T11:13:37;21.50;99.90
59309;DHT22;48433;53.016;-2.260;2023-05-10T11:16:24;20.40;99.90
59309;DHT22;48433;53.016;-2.260;2023-05-10T11:19:07;18.80;99.90
59309;DHT22;48433;53.016;-2.260;2023-05-10T11:24:23;16.90;99.90
59309;DHT22;48433;53.016;-2.260;2023-05-10T11:26:54;16.50;99.90
59309;DHT22;48433;53.016;-2.260;2023-05-10T11:29:22;16.30;99.90
59309;DHT22;48433;53.016;-2.260;2023-05-10T11:31:51;16.20;99.90
59309;DHT22;48433;53.016;-2.260;2023-05-10T11:34:29;16.10;99.90
59309;DHT22;48433;53.016;-2.260;2023-05-10T11:37:05;16.60;99.90
59309;DHT22;48433;53.016;-2.260;2023-05-10T11:39:33;17.50;99.90
59309;DHT22;48433;53.016;-2.260;2023-05-10T11:42:00;18.30;99.90
59309;DHT22;48433;53.016;-2.260;2023-05-10T11:44:31;19.00;99.90
59309;DHT22;48433;53.016;-2.260;2023-05-10T11:47:00;19.70;99.90
59309;DHT22;48433;53.016;-2.260;2023-05-10T11:49:28;20.10;99.90
59309;DHT22;48433;53.016;-2.260;2023-05-10T11:52:08;20.20;99.90
59309;DHT22;48433;53.016;-2.260;2023-05-10T11:54:36;21.00;99.90
59309;DHT22;48433;53.016;-2.260;2023-05-10T11:57:03;21.00;99.90
59309;DHT22;48433;53.016;-2.260;2023-05-10T11:59:31;20.60;99.90
59309;DHT22;48433;53.016;-2.260;2023-05-10T12:01:59;22.00;99.90
59309;DHT22;48433;53.016;-2.260;2023-05-10T12:04:27;22.20;99.90
59309;DHT22;48433;53.016;-2.260;2023-05-10T12:06:57;22.10;99.90
59309;DHT22;48433;53.016;-2.260;2023-05-10T12:09:24;21.60;99.90
59309;DHT22;48433;53.016;-2.260;2023-05-10T12:12:10;20.60;99.90
59309;DHT22;48433;53.016;-2.260;2023-05-10T12:14:37;20.20;99.90
59309;DHT22;48433;53.016;-2.260;2023-05-10T12:17:05;19.90;99.90
59309;DHT22;48433;53.016;-2.260;2023-05-10T12:19:41;19.60;99.90
59309;DHT22;48433;53.016;-2.260;2023-05-10T12:22:08;19.30;99.90
59309;DHT22;48433;53.016;-2.260;2023-05-10T12:24:36;19.00;99.90
59309;DHT22;48433;53.016;-2.260;2023-05-10T12:27:05;18.70;99.90
59309;DHT22;48433;53.016;-2.260;2023-05-10T12:29:36;18.40;99.90
59309;DHT22;48433;53.016;-2.260;2023-05-10T12:32:03;18.20;99.90
59309;DHT22;48433;53.016;-2.260;2023-05-10T12:34:35;17.90;99.90
59309;DHT22;48433;53.016;-2.260;2023-05-10T12:37:04;17.70;99.90
59309;DHT22;48433;53.016;-2.260;2023-05-10T12:39:39;17.60;99.90
59309;DHT22;48433;53.016;-2.260;2023-05-10T12:42:07;17.60;99.90
59309;DHT22;48433;53.016;-2.260;2023-05-10T12:44:35;17.40;99.90
59309;DHT22;48433;53.016;-2.260;2023-05-10T12:47:03;17.10;99.90
59309;DHT22;48433;53.016;-2.260;2023-05-10T12:49:31;16.80;99.90
59309;DHT22;48433;53.016;-2.260;2023-05-10T12:51:58;16.80;99.90
59309;DHT22;48433;53.016;-2.260;2023-05-10T12:54:26;16.80;99.90
59309;DHT22;48433;53.016;-2.260;2023-05-10T12:56:53;16.90;99.90
59309;DHT22;48433;53.016;-2.260;2023-05-10T12:59:21;17.30;99.90
59309;DHT22;48433;53.016;-2.260;2023-05-10T13:01:50;18.10;99.90
59309;DHT22;48433;53.016;-2.260;2023-05-10T13:04:17;18.50;99.90
59309;DHT22;48433;53.016;-2.260;2023-05-10T13:06:45;18.60;99.90
59309;DHT22;48433;53.016;-2.260;2023-05-10T13:09:13;18.60;99.90
59309;DHT22;48433;53.016;-2.260;2023-05-10T13:11:41;18.20;99.90
59309;DHT22;48433;53.016;-2.260;2023-05-10T13:14:08;17.50;99.90
59309;DHT22;48433;53.016;-2.260;2023-05-10T13:16:36;17.20;99.90
59309;DHT22;48433;53.016;-2.260;2023-05-10T13:19:03;17.20;99.90
59309;DHT22;48433;53.016;-2.260;2023-05-10T13:21:31;17.00;99.90
59309;DHT22;48433;53.016;-2.260;2023-05-10T13:23:58;16.60;99.90
59309;DHT22;48433;53.016;-2.260;2023-05-10T13:26:30;16.50;99.90
59309;DHT22;48433;53.016;-2.260;2023-05-10T13:28:58;16.40;99.90
59309;DHT22;48433;53.016;-2.260;2023-05-10T13:31:25;16.50;99.90
59309;DHT22;48433;53.016;-2.260;2023-05-10T13:33:53;16.30;99.90
59309;DHT22;48433;53.016;-2.260;2023-05-10T13:36:21;16.30;99.90
59309;DHT22;48433;53.016;-2.260;2023-05-10T13:38:50;16.10;99.90
59309;DHT22;48433;53.016;-2.260;2023-05-10T13:41:17;16.10;99.90
59309;DHT22;48433;53.016;-2.260;2023-05-10T13:43:45;15.90;99.90
59309;DHT22;48433;53.016;-2.260;2023-05-10T13:46:13;15.80;99.90
59309;DHT22;48433;53.016;-2.260;2023-05-10T13:48:40;15.40;99.90
59309;DHT22;48433;53.016;-2.260;2023-05-10T13:51:08;15.10;99.90
59309;DHT22;48433;53.016;-2.260;2023-05-10T13:53:36;14.90;99.90
59309;DHT22;48433;53.016;-2.260;2023-05-10T13:56:03;14.70;99.90
59309;DHT22;48433;53.016;-2.260;2023-05-10T13:58:31;14.50;99.90
59309;DHT22;48433;53.016;-2.260;2023-05-10T14:00:59;14.30;99.90
59309;DHT22;48433;53.016;-2.260;2023-05-10T14:03:26;14.20;99.90
59309;DHT22;48433;53.016;-2.260;2023-05-10T14:05:54;14.10;99.90
59309;DHT22;48433;53.016;-2.260;2023-05-10T14:08:22;14.10;99.90
59309;DHT22;48433;53.016;-2.260;2023-05-10T14:10:49;14.00;99.90
59309;DHT22;48433;53.016;-2.260;2023-05-10T14:13:18;14.00;99.90
59309;DHT22;48433;53.016;-2.260;2023-05-10T14:15:45;14.00;99.90
59309;DHT22;48433;53.016;-2.260;2023-05-10T14:18:13;14.00;99.90
59309;DHT22;48433;53.016;-2.260;2023-05-10T14:20:41;13.90;99.90
59309;DHT22;48433;53.016;-2.260;2023-05-10T14:23:09;13.80;99.90
59309;DHT22;48433;53.016;-2.260;2023-05-10T14:25:40;13.90;99.90
59309;DHT22;48433;53.016;-2.260;2023-05-10T14:28:09;13.70;99.90
59309;DHT22;48433;53.016;-2.260;2023-05-10T14:30:36;13.70;99.90
59309;DHT22;48433;53.016;-2.260;2023-05-10T14:33:04;13.60;99.90
59309;DHT22;48433;53.016;-2.260;2023-05-10T14:35:32;13.50;99.90
59309;DHT22;48433;53.016;-2.260;2023-05-10T14:38:00;13.40;99.90
59309;DHT22;48433;53.016;-2.260;2023-05-10T14:40:28;13.50;99.90
59309;DHT22;48433;53.016;-2.260;2023-05-10T14:42:56;13.60;99.90
59309;DHT22;48433;53.016;-2.260;2023-05-10T14:45:24;13.60;99.90
59309;DHT22;48433;53.016;-2.260;2023-05-10T14:47:51;13.70;99.90
59309;DHT22;48433;53.016;-2.260;2023-05-10T14:50:19;13.70;99.90
59309;DHT22;48433;53.016;-2.260;2023-05-10T14:53:02;13.80;99.90
59309;DHT22;48433;53.016;-2.260;2023-05-10T14:55:30;13.90;99.90
59309;DHT22;48433;53.016;-2.260;2023-05-10T14:57:57;13.90;99.90
59309;DHT22;48433;53.016;-2.260;2023-05-10T15:00:26;13.90;99.90
59309;DHT22;48433;53.016;-2.260;2023-05-10T15:02:55;13.90;99.90
59309;DHT22;48433;53.016;-2.260;2023-05-10T15:05:23;14.00;99.90
59309;DHT22;48433;53.016;-2.260;2023-05-10T15:07:51;14.20;99.90
59309;DHT22;48433;53.016;-2.260;2023-05-10T15:10:19;14.20;99.90
59309;DHT22;48433;53.016;-2.260;2023-05-10T15:12:46;14.20;99.90
59309;DHT22;48433;53.016;-2.260;2023-05-10T15:15:14;14.60;99.90
59309;DHT22;48433;53.016;-2.260;2023-05-10T15:17:42;14.80;99.90
59309;DHT22;48433;53.016;-2.260;2023-05-10T15:20:11;15.10;99.90
59309;DHT22;48433;53.016;-2.260;2023-05-10T15:22:38;15.40;99.90
59309;DHT22;48433;53.016;-2.260;2023-05-10T15:25:06;15.50;99.90
59309;DHT22;48433;53.016;-2.260;2023-05-10T15:27:34;15.60;99.90
59309;DHT22;48433;53.016;-2.260;2023-05-10T15:30:02;15.50;99.90
59309;DHT22;48433;53.016;-2.260;2023-05-10T15:32:30;15.40;99.90
59309;DHT22;48433;53.016;-2.260;2023-05-10T15:34:58;15.30;99.90
59309;DHT22;48433;53.016;-2.260;2023-05-10T15:37:25;15.30;99.90
59309;DHT22;48433;53.016;-2.260;2023-05-10T15:39:53;15.20;99.90
59309;DHT22;48433;53.016;-2.260;2023-05-10T15:42:23;15.10;99.90
59309;DHT22;48433;53.016;-2.260;2023-05-10T15:44:51;16.20;99.90
59309;DHT22;48433;53.016;-2.260;2023-05-10T15:47:18;16.20;99.90
59309;DHT22;48433;53.016;-2.260;2023-05-10T15:49:46;17.50;99.90
59309;DHT22;48433;53.016;-2.260;2023-05-10T15:52:14;17.90;99.90
59309;DHT22;48433;53.016;-2.260;2023-05-10T15:54:41;17.90;99.90
59309;DHT22;48433;53.016;-2.260;2023-05-10T15:57:09;17.80;99.90
59309;DHT22;48433;53.016;-2.260;2023-05-10T15:59:37;17.40;99.90
59309;DHT22;48433;53.016;-2.260;2023-05-10T16:02:05;17.10;99.90
59309;DHT22;48433;53.016;-2.260;2023-05-10T16:04:33;16.70;99.90
59309;DHT22;48433;53.016;-2.260;2023-05-10T16:07:01;16.40;99.90
59309;DHT22;48433;53.016;-2.260;2023-05-10T16:09:29;16.10;99.90
59309;DHT22;48433;53.016;-2.260;2023-05-10T16:11:57;15.80;99.90
59309;DHT22;48433;53.016;-2.260;2023-05-10T16:14:24;15.60;99.90
59309;DHT22;48433;53.016;-2.260;2023-05-10T16:16:52;15.50;99.90
59309;DHT22;48433;53.016;-2.260;2023-05-10T16:19:20;15.30;99.90
59309;DHT22;48433;53.016;-2.260;2023-05-10T16:21:48;15.40;99.90
59309;DHT22;48433;53.016;-2.260;2023-05-10T16:24:16;15.20;99.90
59309;DHT22;48433;53.016;-2.260;2023-05-10T16:26:44;15.20;99.90